Time;durP1;ratioP1;P1;durP2;ratioP2;P2;SDS_P1;SDS_P2;PMS_P1;PMS_P2;Temp;Humidity;BMP_temperature;BMP_pressure;BME280_temperature;BME280_humidity;BME280_pressure;Samples;Min_cycle;Max_cycle;Signal;HPM_P1;HPM_P2
2021/05/26 00:02:20;;;;;;;8.80;4.60;;;9.30;99.90;;;;;;5076741;28;20263;-77
2021/05/26 00:04:46;;;;;;;7.03;4.20;;;9.30;99.90;;;;;;5076685;28;20187;-76
2021/05/26 00:07:11;;;;;;;9.37;5.67;;;9.30;99.90;;;;;;5060000;28;20246;-77
2021/05/26 00:09:37;;;;;;;8.10;4.80;;;9.30;99.90;;;;;;5076362;28;20256;-77
2021/05/26 00:12:03;;;;;;;7.57;4.73;;;9.40;99.90;;;;;;5076341;28;20173;-77
2021/05/26 00:14:28;;;;;;;9.73;4.80;;;9.40;99.90;;;;;;5059719;28;20190;-76
2021/05/26 00:16:54;;;;;;;7.80;4.90;;;9.40;99.90;;;;;;5076377;28;20257;-77
2021/05/26 00:19:19;;;;;;;9.53;4.63;;;9.40;99.90;;;;;;5059599;28;20209;-77
2021/05/26 00:21:45;;;;;;;7.17;4.07;;;9.40;99.90;;;;;;5076416;28;20211;-77
2021/05/26 00:24:11;;;;;;;5.87;4.13;;;9.40;99.90;;;;;;5060147;28;20195;-76
2021/05/26 00:26:36;;;;;;;7.07;4.77;;;9.40;99.90;;;;;;5076529;28;20357;-76
2021/05/26 00:29:02;;;;;;;8.60;4.43;;;9.40;99.90;;;;;;5059375;28;20269;-77
2021/05/26 00:31:28;;;;;;;6.27;4.53;;;9.40;99.90;;;;;;5076353;28;20276;-76
2021/05/26 00:33:54;;;;;;;7.53;4.53;;;9.40;99.90;;;;;;5059207;28;20181;-76
2021/05/26 00:36:19;;;;;;;10.03;4.47;;;9.40;99.90;;;;;;5075676;28;20172;-77
2021/05/26 00:38:46;;;;;;;7.70;4.30;;;9.40;99.90;;;;;;5075791;28;20196;-76
2021/05/26 00:41:12;;;;;;;7.33;4.50;;;9.40;99.90;;;;;;5076346;28;20197;-77
2021/05/26 00:43:37;;;;;;;6.67;4.13;;;9.40;99.90;;;;;;5059126;28;20574;-77
2021/05/26 00:46:03;;;;;;;5.20;4.00;;;9.40;99.90;;;;;;5076411;28;20188;-77
2021/05/26 00:48:29;;;;;;;6.73;4.30;;;9.50;99.90;;;;;;5059220;28;20281;-77
2021/05/26 00:50:54;;;;;;;7.83;4.80;;;9.40;99.90;;;;;;5075618;28;20696;-77
2021/05/26 00:53:21;;;;;;;7.87;4.50;;;9.50;99.90;;;;;;5092680;28;20170;-77
2021/05/26 00:55:47;;;;;;;6.17;3.97;;;9.50;99.90;;;;;;5076187;28;20252;-77
2021/05/26 00:58:13;;;;;;;4.80;3.60;;;9.50;99.90;;;;;;5092583;28;20262;-77
2021/05/26 01:00:40;;;;;;;6.07;4.10;;;9.50;99.90;;;;;;5075593;28;20693;-77
2021/05/26 01:03:06;;;;;;;6.13;3.90;;;9.40;99.90;;;;;;5092653;28;20223;-77
2021/05/26 01:05:32;;;;;;;4.80;3.87;;;9.40;99.90;;;;;;5059098;28;20278;-77
2021/05/26 01:07:58;;;;;;;6.70;3.77;;;9.40;99.90;;;;;;5075183;28;20187;-76
2021/05/26 01:10:25;;;;;;;6.87;3.43;;;9.50;99.90;;;;;;5058514;28;20213;-76
2021/05/26 01:12:51;;;;;;;7.03;3.73;;;9.50;99.90;;;;;;5058879;28;20189;-76
2021/05/26 01:15:17;;;;;;;5.70;3.33;;;9.50;99.90;;;;;;5059008;28;20214;-77
2021/05/26 01:17:43;;;;;;;4.47;3.20;;;9.50;99.90;;;;;;5075288;28;20205;-77
2021/05/26 01:20:11;;;;;;;4.90;3.53;;;9.50;99.90;;;;;;5058425;28;20746;-77
2021/05/26 01:22:37;;;;;;;4.73;3.30;;;9.50;99.90;;;;;;5075888;28;20185;-76
2021/05/26 01:25:06;;;;;;;8.97;3.93;;;9.50;99.90;;;;;;5058941;28;20180;-77
2021/05/26 01:27:33;;;;;;;5.40;2.93;;;9.50;99.90;;;;;;5075456;28;20331;-77
2021/05/26 01:30:00;;;;;;;5.03;2.93;;;9.50;99.90;;;;;;5091685;28;20322;-76
2021/05/26 01:32:26;;;;;;;7.00;3.47;;;9.40;99.90;;;;;;5058721;28;20181;-77
2021/05/26 01:34:51;;;;;;;5.50;2.77;;;9.40;99.90;;;;;;5075126;28;20661;-77
2021/05/26 01:37:17;;;;;;;4.07;2.90;;;9.30;99.90;;;;;;5091918;28;20171;-77
2021/05/26 01:39:47;;;;;;;4.87;3.00;;;9.30;99.90;;;;;;5074099;28;20214;-77
2021/05/26 01:42:27;;;;;;;5.23;3.40;;;9.30;99.90;;;;;;5093229;28;20563;-77
2021/05/26 01:44:53;;;;;;;5.00;3.27;;;9.30;99.90;;;;;;5074980;28;20169;-76
2021/05/26 01:47:19;;;;;;;5.67;3.17;;;9.30;99.90;;;;;;5057177;28;20264;-76
2021/05/26 01:49:46;;;;;;;6.70;3.43;;;9.30;99.90;;;;;;5091313;28;20292;-76
2021/05/26 01:52:12;;;;;;;4.87;3.57;;;9.30;99.90;;;;;;5074770;28;20169;-77
2021/05/26 01:54:37;;;;;;;5.67;3.60;;;9.30;99.90;;;;;;5091500;28;20196;-76
2021/05/26 01:57:03;;;;;;;8.40;3.90;;;9.30;99.90;;;;;;5058041;28;20176;-76
2021/05/26 01:59:29;;;;;;;5.30;3.57;;;9.30;99.90;;;;;;5057590;28;20184;-77
2021/05/26 02:01:55;;;;;;;6.37;3.60;;;9.30;99.90;;;;;;5057897;28;20623;-76
2021/05/26 02:04:21;;;;;;;5.83;3.43;;;9.20;99.90;;;;;;5073319;28;20196;-77
2021/05/26 02:06:59;;;;;;;6.20;3.43;;;9.20;99.90;;;;;;5057748;28;20187;-77
2021/05/26 02:09:25;;;;;;;6.03;3.23;;;9.20;99.90;;;;;;5075657;28;20431;-77
2021/05/26 02:14:36;;;;;;;4.80;3.33;;;9.10;99.90;;;;;;5077612;28;20223;-76
2021/05/26 02:17:01;;;;;;;3.67;2.57;;;9.10;99.90;;;;;;5074268;28;20174;-77
2021/05/26 02:19:27;;;;;;;6.07;3.10;;;9.10;99.90;;;;;;5074187;28;20180;-77
2021/05/26 02:21:53;;;;;;;5.77;2.80;;;9.10;99.90;;;;;;5074142;28;20184;-77
2021/05/26 02:24:18;;;;;;;3.23;2.70;;;9.00;99.90;;;;;;5074236;28;20180;-77
2021/05/26 02:26:44;;;;;;;4.77;2.87;;;9.10;99.90;;;;;;5074231;28;20177;-77
2021/05/26 02:29:09;;;;;;;3.53;2.70;;;9.00;99.90;;;;;;5073182;28;20175;-77
2021/05/26 02:31:36;;;;;;;3.27;2.53;;;9.00;99.90;;;;;;5090828;28;20662;-77
2021/05/26 02:34:01;;;;;;;3.57;2.60;;;9.00;99.90;;;;;;5073846;28;20179;-76
2021/05/26 02:36:28;;;;;;;5.10;2.30;;;9.00;99.90;;;;;;5074171;28;20181;-77
2021/05/26 02:38:53;;;;;;;8.57;2.70;;;9.00;99.90;;;;;;5057191;28;20256;-77
2021/05/26 02:41:19;;;;;;;6.73;2.60;;;9.00;99.90;;;;;;5057365;28;20205;-77
2021/05/26 02:43:45;;;;;;;4.93;2.50;;;9.10;99.90;;;;;;5074123;28;20177;-77
2021/05/26 02:46:11;;;;;;;4.33;2.40;;;9.00;99.90;;;;;;5057327;28;20172;-77
2021/05/26 02:48:36;;;;;;;3.77;2.70;;;9.00;99.90;;;;;;5053396;28;20177;-77
2021/05/26 02:51:04;;;;;;;5.43;2.87;;;9.10;99.90;;;;;;5053617;28;20213;-77
2021/05/26 02:53:31;;;;;;;5.77;2.70;;;9.10;99.90;;;;;;5054318;28;20178;-77
2021/05/26 02:55:58;;;;;;;4.33;2.80;;;9.10;99.90;;;;;;5070966;28;20179;-77
2021/05/26 02:58:24;;;;;;;3.80;3.20;;;9.10;99.90;;;;;;5056020;28;20603;-76
2021/05/26 03:00:50;;;;;;;3.67;2.87;;;9.10;99.90;;;;;;5057561;28;20202;-77
2021/05/26 03:03:16;;;;;;;4.53;3.10;;;9.20;99.90;;;;;;5074602;28;20178;-77
2021/05/26 03:05:41;;;;;;;6.10;3.30;;;9.10;99.90;;;;;;5075741;28;20177;-76
2021/05/26 03:08:07;;;;;;;6.03;3.20;;;9.10;99.90;;;;;;5074536;28;20310;-77
2021/05/26 03:10:33;;;;;;;5.80;3.27;;;9.10;99.90;;;;;;5057050;28;20211;-77
2021/05/26 03:12:58;;;;;;;5.90;3.50;;;9.10;99.90;;;;;;5074443;28;20231;-76
2021/05/26 03:15:24;;;;;;;6.80;3.80;;;9.10;99.90;;;;;;5091335;28;20259;-77
2021/05/26 03:17:49;;;;;;;5.20;3.20;;;9.10;99.90;;;;;;5057647;28;20177;-76
2021/05/26 03:20:15;;;;;;;4.97;3.90;;;9.10;99.90;;;;;;5074120;28;20191;-76
2021/05/26 03:22:42;;;;;;;6.27;3.77;;;9.10;99.90;;;;;;5073938;28;20181;-77
2021/05/26 03:25:09;;;;;;;4.73;3.00;;;9.10;99.90;;;;;;5057621;28;20205;-76
2021/05/26 03:27:35;;;;;;;6.27;3.40;;;9.10;99.90;;;;;;5074642;28;20185;-77
2021/05/26 03:30:03;;;;;;;6.13;3.50;;;9.20;99.90;;;;;;5073883;28;20690;-77
2021/05/26 03:32:28;;;;;;;8.93;4.17;;;9.20;99.90;;;;;;5073760;28;20184;-77
2021/05/26 03:34:54;;;;;;;8.77;3.93;;;9.20;99.90;;;;;;5073865;28;20518;-78
2021/05/26 03:37:20;;;;;;;6.90;4.00;;;9.20;99.90;;;;;;5073955;28;20553;-77
2021/05/26 03:39:45;;;;;;;6.60;3.70;;;9.20;99.90;;;;;;5073492;28;20237;-77
2021/05/26 03:42:11;;;;;;;6.77;4.40;;;9.20;99.90;;;;;;5073854;28;20702;-77
2021/05/26 03:44:37;;;;;;;9.93;3.87;;;9.20;99.90;;;;;;5073789;28;20192;-77
2021/05/26 03:47:02;;;;;;;5.83;4.07;;;9.20;99.90;;;;;;5056574;28;20269;-77
2021/05/26 03:49:28;;;;;;;7.83;3.93;;;9.20;99.90;;;;;;5073304;28;20327;-76
2021/05/26 03:51:54;;;;;;;8.17;4.77;;;9.20;99.90;;;;;;5057102;28;20170;-76
2021/05/26 03:54:19;;;;;;;9.30;4.87;;;9.20;99.90;;;;;;5090566;28;20643;-77
2021/05/26 03:56:45;;;;;;;9.43;4.97;;;9.30;99.90;;;;;;5074739;28;20177;-77
2021/05/26 03:59:10;;;;;;;6.20;4.60;;;9.30;99.90;;;;;;5073926;28;20181;-77
2021/05/26 04:01:38;;;;;;;8.33;4.63;;;9.30;99.90;;;;;;5092919;28;20731;-77
2021/05/26 04:04:04;;;;;;;5.67;4.07;;;9.20;99.90;;;;;;5060414;28;20176;-77
2021/05/26 04:06:30;;;;;;;5.67;4.17;;;9.30;99.90;;;;;;5093531;28;20699;-77
2021/05/26 04:08:56;;;;;;;10.07;5.20;;;9.30;99.90;;;;;;5063600;28;20613;-79
2021/05/26 04:11:24;;;;;;;9.23;4.83;;;9.30;99.90;;;;;;5082323;28;20205;-78
2021/05/26 04:13:49;;;;;;;9.00;4.77;;;9.30;99.90;;;;;;5063202;28;20180;-79
2021/05/26 04:16:16;;;;;;;7.67;5.03;;;9.30;99.90;;;;;;5079414;28;20177;-79
2021/05/26 04:18:42;;;;;;;5.93;4.00;;;9.40;99.90;;;;;;5063106;28;20259;-79
2021/05/26 04:21:08;;;;;;;9.33;5.10;;;9.40;99.90;;;;;;5079664;28;20229;-78
2021/05/26 04:23:34;;;;;;;8.57;4.90;;;9.40;99.90;;;;;;5063243;28;20172;-79
2021/05/26 04:26:00;;;;;;;8.97;4.90;;;9.40;99.90;;;;;;5079243;28;20678;-79
2021/05/26 04:28:26;;;;;;;9.47;4.63;;;9.40;99.90;;;;;;5063419;28;20184;-79
2021/05/26 04:30:51;;;;;;;8.70;4.70;;;9.50;99.90;;;;;;5077401;28;20201;-78
2021/05/26 04:33:17;;;;;;;12.67;4.97;;;9.50;99.90;;;;;;5059698;28;20172;-78
2021/05/26 04:35:46;;;;;;;8.40;4.73;;;9.50;99.90;;;;;;5076879;28;20191;-77
2021/05/26 04:38:12;;;;;;;7.67;4.80;;;9.60;99.90;;;;;;5059395;28;20188;-77
2021/05/26 04:40:38;;;;;;;9.07;5.40;;;9.60;99.90;;;;;;5077543;28;20214;-77
2021/05/26 04:43:04;;;;;;;8.13;4.77;;;9.60;99.90;;;;;;5076751;28;20585;-76
2021/05/26 04:45:29;;;;;;;11.40;5.00;;;9.60;99.90;;;;;;5093053;28;20180;-77
2021/05/26 04:47:56;;;;;;;8.87;5.27;;;9.50;99.90;;;;;;5076299;28;20181;-77
2021/05/26 04:50:22;;;;;;;10.87;4.07;;;9.60;99.90;;;;;;5059268;28;20200;-77
2021/05/26 04:52:48;;;;;;;9.50;4.53;;;9.60;99.90;;;;;;5074382;28;20605;-78
2021/05/26 04:55:14;;;;;;;8.13;4.40;;;9.60;99.90;;;;;;5072673;28;20176;-77
2021/05/26 04:57:40;;;;;;;8.97;4.53;;;9.60;99.90;;;;;;5055709;28;20182;-77
2021/05/26 05:00:06;;;;;;;7.80;4.70;;;9.60;99.90;;;;;;5055451;28;20205;-77
2021/05/26 05:02:31;;;;;;;6.67;4.33;;;9.60;99.90;;;;;;5067494;28;20222;-77
2021/05/26 05:04:57;;;;;;;5.77;4.10;;;9.60;99.90;;;;;;5056980;28;20179;-77
2021/05/26 05:07:22;;;;;;;6.73;4.33;;;9.60;99.90;;;;;;5082051;28;20181;-77
2021/05/26 05:09:49;;;;;;;10.53;4.40;;;9.70;99.90;;;;;;5090746;28;20212;-77
2021/05/26 05:12:14;;;;;;;8.43;4.17;;;9.70;99.90;;;;;;5059900;28;20270;-80
2021/05/26 05:14:40;;;;;;;6.30;4.10;;;9.70;99.90;;;;;;5079471;28;20211;-78
2021/05/26 05:17:06;;;;;;;6.23;3.60;;;9.70;99.90;;;;;;5063057;28;20177;-77
2021/05/26 05:19:32;;;;;;;5.67;3.90;;;9.90;99.90;;;;;;5079674;28;20222;-79
2021/05/26 05:21:58;;;;;;;7.70;3.63;;;9.90;99.90;;;;;;5079809;28;20191;-79
2021/05/26 05:24:24;;;;;;;7.37;3.63;;;9.90;99.90;;;;;;5058493;28;20211;-78
2021/05/26 05:26:49;;;;;;;6.33;3.70;;;9.90;99.90;;;;;;5060023;28;20253;-77
2021/05/26 05:29:15;;;;;;;7.20;3.70;;;9.90;99.90;;;;;;5108716;28;20757;-77
2021/05/26 05:31:40;;;;;;;6.87;2.90;;;10.00;99.90;;;;;;5067590;28;20701;-79
2021/05/26 05:34:06;;;;;;;8.57;3.57;;;10.00;99.90;;;;;;5043172;28;20166;-78
2021/05/26 05:36:32;;;;;;;5.50;2.97;;;10.00;99.90;;;;;;5058754;28;20170;-78
2021/05/26 05:38:58;;;;;;;5.47;3.00;;;10.10;99.90;;;;;;5041077;28;20186;-78
2021/05/26 05:41:24;;;;;;;6.13;3.00;;;10.10;99.90;;;;;;5057535;28;20201;-78
2021/05/26 05:43:49;;;;;;;5.30;3.37;;;10.40;99.90;;;;;;5074089;28;20491;-79
2021/05/26 05:46:15;;;;;;;4.97;3.00;;;10.70;99.90;;;;;;5057079;28;20173;-78
2021/05/26 05:48:40;;;;;;;4.97;2.90;;;10.70;99.90;;;;;;5040512;28;20185;-78
2021/05/26 05:51:06;;;;;;;3.90;2.60;;;10.60;99.90;;;;;;5056907;28;20204;-78
2021/05/26 05:53:32;;;;;;;5.17;2.67;;;10.40;99.90;;;;;;5056591;28;20648;-78
2021/05/26 05:56:01;;;;;;;4.63;2.43;;;10.40;99.90;;;;;;5041664;28;20603;-79
2021/05/26 05:58:26;;;;;;;5.80;2.67;;;10.40;99.90;;;;;;5057715;28;20203;-78
2021/05/26 06:00:52;;;;;;;4.70;2.67;;;10.60;99.90;;;;;;5040528;28;20190;-78
2021/05/26 06:03:18;;;;;;;5.60;2.70;;;10.80;99.90;;;;;;5040478;28;20414;-78
2021/05/26 06:05:44;;;;;;;7.10;3.03;;;11.20;99.90;;;;;;5057512;28;20180;-79
2021/05/26 06:08:10;;;;;;;4.33;2.73;;;11.90;99.90;;;;;;5039420;28;20549;-78
2021/05/26 06:10:36;;;;;;;4.63;2.50;;;12.40;99.90;;;;;;5055843;28;20208;-79
2021/05/26 06:13:07;;;;;;;3.77;2.57;;;12.80;99.90;;;;;;5073092;28;20175;-78
2021/05/26 06:15:33;;;;;;;4.77;2.10;;;13.00;99.90;;;;;;5060278;28;20217;-79
2021/05/26 06:17:58;;;;;;;4.13;2.13;;;12.60;99.90;;;;;;5042320;28;20185;-78
2021/05/26 06:20:24;;;;;;;4.20;2.07;;;12.40;99.90;;;;;;5055976;28;20470;-77
2021/05/26 06:22:50;;;;;;;5.90;2.40;;;12.30;99.90;;;;;;5054502;28;20173;-77
2021/05/26 06:25:15;;;;;;;6.07;3.20;;;12.00;99.90;;;;;;5065650;28;20179;-76
2021/05/26 06:27:41;;;;;;;5.57;2.50;;;11.70;99.90;;;;;;5089641;28;20187;-77
2021/05/26 06:30:08;;;;;;;2.90;2.30;;;11.40;99.90;;;;;;5087404;28;20224;-77
2021/05/26 06:32:34;;;;;;;4.67;3.10;;;11.30;99.90;;;;;;5093977;28;20180;-77
2021/05/26 06:35:00;;;;;;;2.87;2.50;;;11.40;99.90;;;;;;5094322;28;20545;-77
2021/05/26 06:37:25;;;;;;;4.93;2.50;;;11.50;99.90;;;;;;5078432;28;20169;-77
2021/05/26 06:39:51;;;;;;;3.37;2.40;;;11.50;99.90;;;;;;5094130;28;20240;-78
2021/05/26 06:42:17;;;;;;;3.43;2.30;;;11.70;99.90;;;;;;5095484;28;20187;-77
2021/05/26 06:44:43;;;;;;;3.33;2.37;;;11.50;99.90;;;;;;5112261;28;20183;-77
2021/05/26 06:47:08;;;;;;;2.77;1.80;;;11.40;99.90;;;;;;5112086;28;20207;-77
2021/05/26 06:49:34;;;;;;;2.97;2.20;;;11.40;99.90;;;;;;5094798;28;20168;-78
2021/05/26 06:51:59;;;;;;;4.13;2.40;;;11.40;99.90;;;;;;5095318;28;20172;-77
2021/05/26 06:54:25;;;;;;;6.17;2.67;;;11.40;99.90;;;;;;5095912;28;20170;-77
2021/05/26 06:56:51;;;;;;;5.17;2.23;;;11.40;99.90;;;;;;5095396;28;20174;-76
2021/05/26 06:59:17;;;;;;;2.57;2.37;;;11.40;99.90;;;;;;5111105;28;20571;-77
2021/05/26 07:01:42;;;;;;;5.27;2.50;;;11.60;99.90;;;;;;5077790;28;20202;-77
2021/05/26 07:04:08;;;;;;;6.27;2.50;;;11.70;99.90;;;;;;5097188;28;20611;-78
2021/05/26 07:06:34;;;;;;;5.03;3.00;;;11.70;99.90;;;;;;5083954;28;20644;-78
2021/05/26 07:09:00;;;;;;;5.53;2.87;;;11.70;99.90;;;;;;5114702;28;20172;-78
2021/05/26 07:11:25;;;;;;;4.27;2.97;;;11.50;99.90;;;;;;5080665;28;20214;-79
2021/05/26 07:13:51;;;;;;;2.90;2.47;;;11.50;99.90;;;;;;5099052;28;20537;-80
2021/05/26 07:16:17;;;;;;;3.60;3.20;;;11.50;99.90;;;;;;5070669;28;20192;-79
2021/05/26 07:18:47;;;;;;;4.57;2.57;;;11.40;99.90;;;;;;5068740;28;20176;-80
2021/05/26 07:21:13;;;;;;;3.33;2.50;;;11.60;99.90;;;;;;5059091;28;20215;-80
2021/05/26 07:23:39;;;;;;;5.27;3.13;;;11.80;99.90;;;;;;5057639;28;20184;-80
2021/05/26 07:26:05;;;;;;;5.37;2.83;;;12.20;99.90;;;;;;5074294;28;20176;-79
2021/05/26 07:28:30;;;;;;;3.53;2.30;;;12.50;99.90;;;;;;5091045;28;20204;-79
2021/05/26 07:30:56;;;;;;;3.57;2.33;;;13.00;99.90;;;;;;5090107;28;20257;-80
2021/05/26 07:33:22;;;;;;;3.00;2.20;;;13.30;99.90;;;;;;5073860;28;20188;-80
2021/05/26 07:35:47;;;;;;;2.43;2.10;;;13.40;99.90;;;;;;5072891;28;20214;-79
2021/05/26 07:38:13;;;;;;;3.47;2.00;;;13.40;99.90;;;;;;5056403;28;20582;-80
2021/05/26 07:40:39;;;;;;;3.70;2.10;;;13.20;99.90;;;;;;5089044;28;20258;-80
2021/05/26 07:43:04;;;;;;;3.17;2.10;;;13.20;99.90;;;;;;5075447;28;20177;-80
2021/05/26 07:45:30;;;;;;;3.93;2.07;;;13.00;99.90;;;;;;5076503;28;20173;-79
2021/05/26 07:47:56;;;;;;;2.90;1.90;;;13.10;99.90;;;;;;5058315;28;20177;-79
2021/05/26 07:50:21;;;;;;;4.90;2.43;;;13.50;99.90;;;;;;5075216;28;20640;-79
2021/05/26 07:52:47;;;;;;;3.73;1.60;;;13.60;99.90;;;;;;5058714;28;20177;-81
2021/05/26 07:55:13;;;;;;;2.90;1.97;;;13.60;99.90;;;;;;5075073;28;20169;-81
2021/05/26 07:57:39;;;;;;;2.67;1.80;;;13.50;99.90;;;;;;5059015;28;20181;-81
2021/05/26 08:00:06;;;;;;;4.27;1.63;;;13.40;99.90;;;;;;5058793;28;20197;-81
2021/05/26 08:02:31;;;;;;;3.03;1.90;;;13.50;99.90;;;;;;5059018;28;20603;-79
2021/05/26 08:04:57;;;;;;;3.47;1.97;;;13.60;99.90;;;;;;5059236;28;20184;-80
2021/05/26 08:07:23;;;;;;;2.40;1.80;;;13.50;99.90;;;;;;5076002;28;20647;-81
2021/05/26 08:09:48;;;;;;;1.93;1.70;;;13.70;99.90;;;;;;5092090;28;20197;-82
2021/05/26 08:12:15;;;;;;;2.60;1.80;;;13.90;99.90;;;;;;5079278;28;20599;-81
2021/05/26 08:14:41;;;;;;;2.77;1.60;;;13.80;99.90;;;;;;5062637;28;20188;-79
2021/05/26 08:17:06;;;;;;;3.37;1.77;;;13.60;99.90;;;;;;5062692;28;20175;-79
2021/05/26 08:19:32;;;;;;;1.93;1.73;;;13.60;99.90;;;;;;5078919;28;20589;-79
2021/05/26 08:21:58;;;;;;;3.70;1.90;;;13.70;99.90;;;;;;5062593;28;20264;-79
2021/05/26 08:24:24;;;;;;;2.70;1.83;;;13.80;99.90;;;;;;5095668;28;20660;-79
2021/05/26 08:26:50;;;;;;;2.30;1.57;;;13.70;99.90;;;;;;5062075;28;20272;-79
2021/05/26 08:29:16;;;;;;;1.93;1.73;;;13.90;99.90;;;;;;5078869;28;20165;-79
2021/05/26 08:31:43;;;;;;;2.97;1.87;;;14.00;99.90;;;;;;5062042;28;20299;-79
2021/05/26 08:34:10;;;;;;;2.00;1.67;;;13.90;99.90;;;;;;5063314;28;20176;-79
2021/05/26 08:36:36;;;;;;;2.47;1.93;;;14.20;99.90;;;;;;5061135;28;20653;-78
2021/05/26 08:39:04;;;;;;;3.00;1.87;;;14.20;99.90;;;;;;5094014;28;20188;-78
2021/05/26 08:41:30;;;;;;;2.47;1.80;;;14.00;99.90;;;;;;5060502;28;20581;-79
2021/05/26 08:43:56;;;;;;;3.50;2.00;;;14.30;99.90;;;;;;5078207;28;20169;-78
2021/05/26 08:46:26;;;;;;;2.43;1.90;;;14.60;99.90;;;;;;5078519;28;20260;-79
2021/05/26 08:48:53;;;;;;;3.80;2.00;;;14.60;99.90;;;;;;5061522;28;20176;-78
2021/05/26 08:51:20;;;;;;;3.87;2.20;;;14.60;99.90;;;;;;5078622;28;20298;-78
2021/05/26 08:53:46;;;;;;;2.73;1.83;;;14.80;99.90;;;;;;5078332;28;20165;-78
2021/05/26 08:56:12;;;;;;;2.23;1.83;;;14.90;99.90;;;;;;5076767;28;20175;-78
2021/05/26 08:58:41;;;;;;;2.63;1.87;;;14.90;99.90;;;;;;5076953;28;20356;-78
2021/05/26 09:01:07;;;;;;;3.20;2.23;;;15.00;99.90;;;;;;5079042;28;20199;-79
2021/05/26 09:03:32;;;;;;;3.13;2.17;;;15.10;99.90;;;;;;5060786;28;20177;-79
2021/05/26 09:05:58;;;;;;;2.07;1.80;;;15.10;99.90;;;;;;5094553;28;20180;-79
2021/05/26 09:08:25;;;;;;;3.00;1.80;;;15.20;99.90;;;;;;5060715;28;20173;-79
2021/05/26 09:10:56;;;;;;;4.60;2.20;;;15.40;99.90;;;;;;5077239;28;20294;-78
2021/05/26 09:13:29;;;;;;;4.60;2.07;;;15.40;99.90;;;;;;5060797;28;20177;-78
2021/05/26 09:15:55;;;;;;;1.70;1.57;;;15.10;99.90;;;;;;5077041;28;20619;-78
2021/05/26 09:18:21;;;;;;;2.13;1.90;;;14.90;99.90;;;;;;5076751;28;20177;-78
2021/05/26 09:20:46;;;;;;;1.97;1.70;;;14.70;99.90;;;;;;5059692;28;20665;-78
2021/05/26 09:23:18;;;;;;;2.43;1.90;;;14.60;99.90;;;;;;5076430;28;20165;-78
2021/05/26 09:25:44;;;;;;;2.73;1.90;;;14.60;99.90;;;;;;5060445;28;20212;-79
2021/05/26 09:28:36;;;;;;;1.60;1.47;;;14.70;99.90;;;;;;5094750;28;20173;-78
2021/05/26 09:31:10;;;;;;;2.63;1.50;;;14.40;99.90;;;;;;5073299;28;20277;-78
2021/05/26 09:33:48;;;;;;;2.10;1.90;;;14.20;99.90;;;;;;5059975;28;20176;-78
2021/05/26 09:36:24;;;;;;;2.23;2.03;;;14.10;99.90;;;;;;5060179;28;20183;-78
2021/05/26 09:38:56;;;;;;;4.17;2.03;;;13.80;99.90;;;;;;5075588;28;20192;-78
2021/05/26 09:41:22;;;;;;;3.20;2.00;;;13.70;99.90;;;;;;5076310;28;20696;-78
2021/05/26 09:43:48;;;;;;;2.20;2.00;;;13.70;99.90;;;;;;5093135;28;20180;-78
2021/05/26 09:46:30;;;;;;;2.00;1.70;;;14.00;99.90;;;;;;5076026;28;20177;-78
2021/05/26 09:49:05;;;;;;;2.13;1.93;;;14.30;99.90;;;;;;5092896;28;20226;-78
2021/05/26 09:51:32;;;;;;;2.47;2.27;;;14.80;99.90;;;;;;5092928;28;20699;-78
2021/05/26 09:54:15;;;;;;;2.60;2.00;;;15.10;99.90;;;;;;5076195;28;20183;-78
2021/05/26 09:56:42;;;;;;;3.17;1.80;;;15.40;99.90;;;;;;5092810;28;20660;-78
2021/05/26 09:59:08;;;;;;;2.10;1.67;;;15.50;99.90;;;;;;5059265;28;20182;-78
2021/05/26 10:01:35;;;;;;;1.60;1.50;;;15.60;99.90;;;;;;5076105;28;20608;-78
2021/05/26 10:04:01;;;;;;;2.90;1.60;;;15.60;99.90;;;;;;5075868;28;20173;-78
2021/05/26 10:06:28;;;;;;;3.90;1.97;;;15.20;99.90;;;;;;5059440;28;20180;-78
2021/05/26 10:08:57;;;;;;;1.60;1.50;;;14.90;99.90;;;;;;5075002;28;20652;-78
2021/05/26 10:11:28;;;;;;;2.93;1.60;;;14.90;99.90;;;;;;5092126;28;20669;-78
2021/05/26 10:13:54;;;;;;;2.10;1.90;;;14.70;99.90;;;;;;5076349;28;20172;-78
2021/05/26 10:16:21;;;;;;;1.97;1.77;;;14.50;99.90;;;;;;5075533;28;20177;-78
2021/05/26 10:18:46;;;;;;;3.67;1.63;;;14.30;99.90;;;;;;5058452;28;20177;-78
2021/05/26 10:21:32;;;;;;;4.87;1.90;;;14.20;99.90;;;;;;5059421;28;20200;-78
2021/05/26 10:23:58;;;;;;;3.13;1.90;;;14.20;99.90;;;;;;5076426;28;20535;-78
2021/05/26 10:27:02;;;;;;;2.73;1.97;;;14.40;99.90;;;;;;5058893;28;20680;-78
2021/05/26 10:29:28;;;;;;;3.50;1.80;;;14.80;99.90;;;;;;5092954;28;20538;-78
2021/05/26 10:32:06;;;;;;;3.03;1.80;;;15.10;99.90;;;;;;5093302;28;20750;-78
2021/05/26 10:34:50;;;;;;;3.07;1.83;;;15.10;99.90;;;;;;5092108;28;20251;-78
2021/05/26 10:37:27;;;;;;;2.87;1.90;;;15.10;99.90;;;;;;5091682;28;20180;-77
2021/05/26 10:39:53;;;;;;;2.83;1.60;;;15.30;99.90;;;;;;5074015;28;20215;-79
2021/05/26 10:42:25;;;;;;;2.80;1.50;;;15.60;99.90;;;;;;5039070;28;20181;-78
2021/05/26 10:45:07;;;;;;;2.43;1.23;;;15.80;99.90;;;;;;5056572;28;20177;-78
2021/05/26 10:47:36;;;;;;;1.37;1.10;;;15.70;99.90;;;;;;5074849;28;20552;-80
2021/05/26 10:50:03;;;;;;;1.67;1.57;;;15.50;99.90;;;;;;5086662;28;20728;-79
2021/05/26 10:52:29;;;;;;;1.73;1.60;;;15.40;99.90;;;;;;5057310;28;20208;-79
2021/05/26 10:54:55;;;;;;;3.60;1.40;;;15.20;99.90;;;;;;5050198;28;20185;-79
2021/05/26 10:57:21;;;;;;;1.80;1.40;;;15.30;99.90;;;;;;5051140;28;20273;-79
2021/05/26 11:00:26;;;;;;;1.40;1.30;;;15.50;99.90;;;;;;5063577;28;20272;-80
2021/05/26 11:03:26;;;;;;;2.07;1.23;;;15.80;99.90;;;;;;5013902;28;20211;-80
2021/05/26 11:05:59;;;;;;;1.17;1.00;;;15.70;99.90;;;;;;5082322;28;20165;-80
2021/05/26 11:08:35;;;;;;;1.53;1.30;;;15.60;99.90;;;;;;5062776;28;20169;-80
2021/05/26 11:14:11;;;;;;;3.23;1.57;;;15.20;99.90;;;;;;5085444;28;20183;-80
2021/05/26 11:16:46;;;;;;;2.33;1.50;;;14.90;99.90;;;;;;5086251;28;20182;-80
2021/05/26 11:19:30;;;;;;;1.70;1.47;;;14.70;99.90;;;;;;5103099;28;20764;-79
2021/05/26 11:22:00;;;;;;;2.33;1.30;;;14.70;99.90;;;;;;5087484;28;20203;-81
2021/05/26 11:24:26;;;;;;;1.53;0.90;;;14.70;99.90;;;;;;5099546;28;20153;-81
2021/05/26 11:26:52;;;;;;;2.27;1.07;;;14.60;99.90;;;;;;5063936;28;20180;-80
2021/05/26 11:29:30;;;;;;;2.50;0.83;;;14.60;99.90;;;;;;5097854;28;20169;-80
2021/05/26 11:32:22;;;;;;;0.90;0.80;;;14.60;99.90;;;;;;5080914;28;20208;-81
2021/05/26 11:34:49;;;;;;;0.93;0.90;;;14.70;99.90;;;;;;5064342;28;20670;-81
2021/05/26 11:37:35;;;;;;;1.80;1.10;;;14.60;99.90;;;;;;5097553;28;20704;-81
2021/05/26 11:40:03;;;;;;;0.80;0.80;;;14.50;99.90;;;;;;5079487;28;20208;-80
2021/05/26 11:42:29;;;;;;;2.97;0.97;;;14.50;99.90;;;;;;5078240;28;20242;-80
2021/05/26 11:44:55;;;;;;;2.50;1.00;;;14.50;99.90;;;;;;5080957;28;20183;-79
2021/05/26 11:47:46;;;;;;;3.63;1.03;;;14.40;99.90;;;;;;5097040;28;20181;-79
2021/05/26 11:50:15;;;;;;;2.20;0.90;;;14.40;99.90;;;;;;5098210;28;20223;-79
2021/05/26 11:52:42;;;;;;;1.27;0.70;;;14.50;99.90;;;;;;5097619;28;20173;-79
2021/05/26 11:55:08;;;;;;;1.33;1.00;;;14.50;99.90;;;;;;5080408;28;20166;-79
2021/05/26 11:57:41;;;;;;;1.00;0.80;;;14.60;99.90;;;;;;5062616;28;20177;-79
2021/05/26 12:00:19;;;;;;;1.10;0.90;;;14.70;99.90;;;;;;5095630;28;20599;-79
2021/05/26 12:03:02;;;;;;;1.33;1.00;;;14.80;99.90;;;;;;5080027;28;20176;-79
2021/05/26 12:05:53;;;;;;;0.90;0.73;;;14.90;99.90;;;;;;5077630;28;20169;-79
2021/05/26 12:08:29;;;;;;;0.80;0.80;;;15.20;99.90;;;;;;5095823;28;20165;-79
2021/05/26 12:10:58;;;;;;;4.23;1.10;;;15.50;99.90;;;;;;5078110;28;20247;-78
2021/05/26 12:13:26;;;;;;;1.83;1.20;;;15.70;99.90;;;;;;5094688;28;20222;-78
2021/05/26 12:15:52;;;;;;;2.73;1.20;;;15.60;99.90;;;;;;5095307;28;20672;-78
2021/05/26 12:18:18;;;;;;;1.10;1.00;;;15.40;99.90;;;;;;5063112;28;20174;-79
2021/05/26 12:20:54;;;;;;;1.13;1.00;;;15.20;99.90;;;;;;5056380;28;20193;-80
2021/05/26 12:23:36;;;;;;;1.20;1.10;;;15.00;99.90;;;;;;5059188;28;20180;-79
2021/05/26 12:26:26;;;;;;;2.90;1.20;;;14.90;99.90;;;;;;5059646;28;20185;-80
2021/05/26 12:28:52;;;;;;;1.07;0.87;;;14.90;99.90;;;;;;5061978;28;20177;-78
2021/05/26 12:31:18;;;;;;;1.00;0.93;;;14.90;99.90;;;;;;5068163;28;20612;-80
2021/05/26 12:33:51;;;;;;;1.57;1.13;;;14.90;99.90;;;;;;5043471;28;20177;-79
2021/05/26 12:36:17;;;;;;;0.90;0.80;;;15.00;99.90;;;;;;5048888;28;20174;-79
2021/05/26 12:38:44;;;;;;;0.80;0.70;;;15.10;99.90;;;;;;5059011;28;20193;-79
2021/05/26 12:41:26;;;;;;;1.50;0.80;;;15.50;99.90;;;;;;5042167;28;20270;-79
2021/05/26 12:43:52;;;;;;;0.80;0.80;;;15.80;99.90;;;;;;5076650;28;20661;-79
2021/05/26 12:46:36;;;;;;;0.90;0.80;;;16.00;99.90;;;;;;5058758;28;20178;-79
2021/05/26 12:49:04;;;;;;;0.87;0.77;;;16.00;99.90;;;;;;5076984;28;20181;-82
2021/05/26 12:51:38;;;;;;;0.70;0.70;;;16.20;99.90;;;;;;5059252;28;20224;-79
2021/05/26 12:54:03;;;;;;;2.50;0.77;;;16.20;99.90;;;;;;5059339;28;20165;-78
2021/05/26 12:56:30;;;;;;;1.40;0.70;;;16.30;99.90;;;;;;5057919;28;20174;-78
2021/05/26 12:58:56;;;;;;;1.47;0.70;;;16.50;99.90;;;;;;5059445;28;20646;-79
2021/05/26 13:01:21;;;;;;;0.87;0.70;;;16.60;99.90;;;;;;5044513;28;20224;-80